sensor_id;sensor_type;location;lat;lon;timestamp;temperature;humidity
23744;DHT22;12052;53.478;10.182;2024-01-25T00:02:03;7.00;99.90
23744;DHT22;12052;53.478;10.182;2024-01-25T00:04:28;7.00;99.90
23744;DHT22;12052;53.478;10.182;2024-01-25T00:06:54;7.00;99.90
23744;DHT22;12052;53.478;10.182;2024-01-25T00:09:19;7.00;99.90
23744;DHT22;12052;53.478;10.182;2024-01-25T00:11:45;7.00;99.90
23744;DHT22;12052;53.478;10.182;2024-01-25T00:14:10;7.00;99.90
23744;DHT22;12052;53.478;10.182;2024-01-25T00:16:41;7.00;99.90
23744;DHT22;12052;53.478;10.182;2024-01-25T00:19:07;7.00;99.90
23744;DHT22;12052;53.478;10.182;2024-01-25T00:21:33;7.00;99.90
23744;DHT22;12052;53.478;10.182;2024-01-25T00:23:58;6.90;99.90
23744;DHT22;12052;53.478;10.182;2024-01-25T00:26:24;6.90;99.90
23744;DHT22;12052;53.478;10.182;2024-01-25T00:28:50;6.90;99.90
23744;DHT22;12052;53.478;10.182;2024-01-25T00:31:15;6.90;99.90
23744;DHT22;12052;53.478;10.182;2024-01-25T00:33:41;6.80;99.90
23744;DHT22;12052;53.478;10.182;2024-01-25T00:36:07;6.90;99.90
23744;DHT22;12052;53.478;10.182;2024-01-25T00:38:33;6.90;99.90
23744;DHT22;12052;53.478;10.182;2024-01-25T00:40:59;6.90;99.90
23744;DHT22;12052;53.478;10.182;2024-01-25T00:43:25;6.90;99.90
23744;DHT22;12052;53.478;10.182;2024-01-25T00:45:51;6.90;99.90
23744;DHT22;12052;53.478;10.182;2024-01-25T00:48:17;6.90;99.90
23744;DHT22;12052;53.478;10.182;2024-01-25T00:50:43;6.90;99.90
23744;DHT22;12052;53.478;10.182;2024-01-25T00:53:09;6.90;99.90
23744;DHT22;12052;53.478;10.182;2024-01-25T00:55:34;6.90;99.90
23744;DHT22;12052;53.478;10.182;2024-01-25T00:58:00;6.90;99.90
23744;DHT22;12052;53.478;10.182;2024-01-25T01:00:26;6.90;99.90
23744;DHT22;12052;53.478;10.182;2024-01-25T01:02:53;6.90;99.90
23744;DHT22;12052;53.478;10.182;2024-01-25T01:05:19;6.90;99.90
23744;DHT22;12052;53.478;10.182;2024-01-25T01:07:45;6.90;99.90
23744;DHT22;12052;53.478;10.182;2024-01-25T01:10:11;6.90;99.90
23744;DHT22;12052;53.478;10.182;2024-01-25T01:12:36;6.90;99.90
23744;DHT22;12052;53.478;10.182;2024-01-25T01:15:02;7.00;99.90
23744;DHT22;12052;53.478;10.182;2024-01-25T01:17:29;7.00;99.90
23744;DHT22;12052;53.478;10.182;2024-01-25T01:19:54;7.00;99.90
23744;DHT22;12052;53.478;10.182;2024-01-25T01:22:20;7.00;99.90
23744;DHT22;12052;53.478;10.182;2024-01-25T01:24:45;7.10;99.90
23744;DHT22;12052;53.478;10.182;2024-01-25T01:27:11;7.10;99.90
23744;DHT22;12052;53.478;10.182;2024-01-25T01:29:36;7.00;99.90
23744;DHT22;12052;53.478;10.182;2024-01-25T01:32:02;7.00;99.90
23744;DHT22;12052;53.478;10.182;2024-01-25T01:34:28;7.10;99.90
23744;DHT22;12052;53.478;10.182;2024-01-25T01:36:53;7.00;99.90
23744;DHT22;12052;53.478;10.182;2024-01-25T01:39:19;7.00;99.90
23744;DHT22;12052;53.478;10.182;2024-01-25T01:41:48;7.00;99.90
23744;DHT22;12052;53.478;10.182;2024-01-25T01:44:14;7.00;99.90
23744;DHT22;12052;53.478;10.182;2024-01-25T01:46:40;7.00;99.90
23744;DHT22;12052;53.478;10.182;2024-01-25T01:49:08;7.00;99.90
23744;DHT22;12052;53.478;10.182;2024-01-25T01:51:36;6.90;99.90
23744;DHT22;12052;53.478;10.182;2024-01-25T01:54:06;7.00;99.90
23744;DHT22;12052;53.478;10.182;2024-01-25T01:56:32;7.00;99.90
23744;DHT22;12052;53.478;10.182;2024-01-25T01:59:01;7.00;99.90
23744;DHT22;12052;53.478;10.182;2024-01-25T02:01:28;7.00;99.90
23744;DHT22;12052;53.478;10.182;2024-01-25T02:03:53;7.00;99.90
23744;DHT22;12052;53.478;10.182;2024-01-25T02:06:20;7.00;99.90
23744;DHT22;12052;53.478;10.182;2024-01-25T02:08:47;7.00;99.90
23744;DHT22;12052;53.478;10.182;2024-01-25T02:11:13;7.00;99.90
23744;DHT22;12052;53.478;10.182;2024-01-25T02:13:38;7.00;99.90
23744;DHT22;12052;53.478;10.182;2024-01-25T02:16:06;7.00;99.90
23744;DHT22;12052;53.478;10.182;2024-01-25T02:18:33;6.90;99.90
23744;DHT22;12052;53.478;10.182;2024-01-25T02:20:58;6.90;99.90
23744;DHT22;12052;53.478;10.182;2024-01-25T02:23:24;6.90;99.90
23744;DHT22;12052;53.478;10.182;2024-01-25T02:25:50;6.90;99.90
23744;DHT22;12052;53.478;10.182;2024-01-25T02:28:15;6.90;99.90
23744;DHT22;12052;53.478;10.182;2024-01-25T02:30:41;6.90;99.90
23744;DHT22;12052;53.478;10.182;2024-01-25T02:33:06;7.00;99.90
23744;DHT22;12052;53.478;10.182;2024-01-25T02:35:32;6.90;99.90
23744;DHT22;12052;53.478;10.182;2024-01-25T02:37:58;6.90;99.90
23744;DHT22;12052;53.478;10.182;2024-01-25T02:40:23;6.90;99.90
23744;DHT22;12052;53.478;10.182;2024-01-25T02:42:49;7.00;99.90
23744;DHT22;12052;53.478;10.182;2024-01-25T02:45:15;6.90;99.90
23744;DHT22;12052;53.478;10.182;2024-01-25T02:47:40;6.90;99.90
23744;DHT22;12052;53.478;10.182;2024-01-25T02:50:06;6.90;99.90
23744;DHT22;12052;53.478;10.182;2024-01-25T02:52:32;7.00;99.90
23744;DHT22;12052;53.478;10.182;2024-01-25T02:54:57;7.00;99.90
23744;DHT22;12052;53.478;10.182;2024-01-25T02:57:23;7.00;99.90
23744;DHT22;12052;53.478;10.182;2024-01-25T02:59:49;7.00;99.90
23744;DHT22;12052;53.478;10.182;2024-01-25T03:02:14;7.00;99.90
23744;DHT22;12052;53.478;10.182;2024-01-25T03:04:42;7.00;99.90
23744;DHT22;12052;53.478;10.182;2024-01-25T03:07:07;6.90;99.90
23744;DHT22;12052;53.478;10.182;2024-01-25T03:09:33;6.90;99.90
23744;DHT22;12052;53.478;10.182;2024-01-25T03:11:58;7.00;99.90
23744;DHT22;12052;53.478;10.182;2024-01-25T03:14:24;7.00;99.90
23744;DHT22;12052;53.478;10.182;2024-01-25T03:16:50;7.00;99.90
23744;DHT22;12052;53.478;10.182;2024-01-25T03:19:15;7.00;99.90
23744;DHT22;12052;53.478;10.182;2024-01-25T03:21:41;7.00;99.90
23744;DHT22;12052;53.478;10.182;2024-01-25T03:24:06;7.00;99.90
23744;DHT22;12052;53.478;10.182;2024-01-25T03:26:32;7.00;99.90
23744;DHT22;12052;53.478;10.182;2024-01-25T03:28:57;7.00;99.90
23744;DHT22;12052;53.478;10.182;2024-01-25T03:31:23;7.00;99.90
23744;DHT22;12052;53.478;10.182;2024-01-25T03:33:49;7.00;99.90
23744;DHT22;12052;53.478;10.182;2024-01-25T03:36:15;7.00;99.90
23744;DHT22;12052;53.478;10.182;2024-01-25T03:38:43;6.90;99.90
23744;DHT22;12052;53.478;10.182;2024-01-25T03:41:09;6.90;99.90
23744;DHT22;12052;53.478;10.182;2024-01-25T03:43:35;7.00;99.90
23744;DHT22;12052;53.478;10.182;2024-01-25T03:46:00;7.00;99.90
23744;DHT22;12052;53.478;10.182;2024-01-25T03:48:26;7.00;99.90
23744;DHT22;12052;53.478;10.182;2024-01-25T03:50:52;6.90;99.90
23744;DHT22;12052;53.478;10.182;2024-01-25T03:53:22;7.00;99.90
23744;DHT22;12052;53.478;10.182;2024-01-25T03:55:47;7.00;99.90
23744;DHT22;12052;53.478;10.182;2024-01-25T03:58:15;6.90;99.90
23744;DHT22;12052;53.478;10.182;2024-01-25T04:00:40;6.90;99.90
23744;DHT22;12052;53.478;10.182;2024-01-25T04:03:06;6.90;99.90
23744;DHT22;12052;53.478;10.182;2024-01-25T04:05:31;6.90;99.90
23744;DHT22;12052;53.478;10.182;2024-01-25T04:07:57;6.90;99.90
23744;DHT22;12052;53.478;10.182;2024-01-25T04:10:22;6.90;99.90
23744;DHT22;12052;53.478;10.182;2024-01-25T04:12:48;7.00;99.90
23744;DHT22;12052;53.478;10.182;2024-01-25T04:15:13;7.00;99.90
23744;DHT22;12052;53.478;10.182;2024-01-25T04:17:39;7.00;99.90
23744;DHT22;12052;53.478;10.182;2024-01-25T04:20:05;7.00;99.90
23744;DHT22;12052;53.478;10.182;2024-01-25T04:22:31;7.00;99.90
23744;DHT22;12052;53.478;10.182;2024-01-25T04:24:56;7.00;99.90
23744;DHT22;12052;53.478;10.182;2024-01-25T04:27:22;7.10;99.90
23744;DHT22;12052;53.478;10.182;2024-01-25T04:29:47;7.10;99.90
23744;DHT22;12052;53.478;10.182;2024-01-25T04:32:13;7.10;99.90
23744;DHT22;12052;53.478;10.182;2024-01-25T04:34:39;7.10;99.90
23744;DHT22;12052;53.478;10.182;2024-01-25T04:37:04;7.10;99.90
23744;DHT22;12052;53.478;10.182;2024-01-25T04:39:30;7.10;99.90
23744;DHT22;12052;53.478;10.182;2024-01-25T04:41:55;7.10;99.90
23744;DHT22;12052;53.478;10.182;2024-01-25T04:44:21;7.10;99.90
23744;DHT22;12052;53.478;10.182;2024-01-25T04:46:46;7.10;99.90
23744;DHT22;12052;53.478;10.182;2024-01-25T04:49:12;7.10;99.90
23744;DHT22;12052;53.478;10.182;2024-01-25T04:51:38;7.10;99.90
23744;DHT22;12052;53.478;10.182;2024-01-25T04:54:03;7.10;99.90
23744;DHT22;12052;53.478;10.182;2024-01-25T04:56:29;7.00;99.90
23744;DHT22;12052;53.478;10.182;2024-01-25T04:58:54;7.00;99.90
23744;DHT22;12052;53.478;10.182;2024-01-25T05:01:20;7.00;99.90
23744;DHT22;12052;53.478;10.182;2024-01-25T05:03:46;7.00;99.90
23744;DHT22;12052;53.478;10.182;2024-01-25T05:06:11;7.00;99.90
23744;DHT22;12052;53.478;10.182;2024-01-25T05:08:37;7.10;99.90
23744;DHT22;12052;53.478;10.182;2024-01-25T05:11:03;7.00;99.90
23744;DHT22;12052;53.478;10.182;2024-01-25T05:13:28;7.00;99.90
23744;DHT22;12052;53.478;10.182;2024-01-25T05:15:54;7.00;99.90
23744;DHT22;12052;53.478;10.182;2024-01-25T05:18:20;7.00;99.90
23744;DHT22;12052;53.478;10.182;2024-01-25T05:20:45;7.00;99.90
23744;DHT22;12052;53.478;10.182;2024-01-25T05:23:11;7.00;99.90
23744;DHT22;12052;53.478;10.182;2024-01-25T05:25:36;7.00;99.90
23744;DHT22;12052;53.478;10.182;2024-01-25T05:28:02;7.00;99.90
23744;DHT22;12052;53.478;10.182;2024-01-25T05:30:28;7.00;99.90
23744;DHT22;12052;53.478;10.182;2024-01-25T05:32:53;7.00;99.90
23744;DHT22;12052;53.478;10.182;2024-01-25T05:35:20;7.00;99.90
23744;DHT22;12052;53.478;10.182;2024-01-25T05:37:45;7.00;99.90
23744;DHT22;12052;53.478;10.182;2024-01-25T05:40:12;6.90;99.90
23744;DHT22;12052;53.478;10.182;2024-01-25T05:42:38;7.00;99.90
23744;DHT22;12052;53.478;10.182;2024-01-25T05:45:05;6.90;99.90
23744;DHT22;12052;53.478;10.182;2024-01-25T05:47:30;6.90;99.90
23744;DHT22;12052;53.478;10.182;2024-01-25T05:49:57;6.90;99.90
23744;DHT22;12052;53.478;10.182;2024-01-25T05:52:23;6.80;99.90
23744;DHT22;12052;53.478;10.182;2024-01-25T05:54:49;6.80;99.90
23744;DHT22;12052;53.478;10.182;2024-01-25T05:57:15;6.90;99.90
23744;DHT22;12052;53.478;10.182;2024-01-25T05:59:41;6.90;99.90
23744;DHT22;12052;53.478;10.182;2024-01-25T06:02:06;6.90;99.90
23744;DHT22;12052;53.478;10.182;2024-01-25T06:04:33;6.90;99.90
23744;DHT22;12052;53.478;10.182;2024-01-25T06:06:59;6.90;99.90
23744;DHT22;12052;53.478;10.182;2024-01-25T06:09:25;6.90;99.90
23744;DHT22;12052;53.478;10.182;2024-01-25T06:11:51;6.90;99.90
23744;DHT22;12052;53.478;10.182;2024-01-25T06:14:16;6.90;99.90
23744;DHT22;12052;53.478;10.182;2024-01-25T06:16:42;6.90;99.90
23744;DHT22;12052;53.478;10.182;2024-01-25T06:19:08;6.90;99.90
23744;DHT22;12052;53.478;10.182;2024-01-25T06:21:34;6.90;99.90
23744;DHT22;12052;53.478;10.182;2024-01-25T06:24:01;6.90;99.90
23744;DHT22;12052;53.478;10.182;2024-01-25T06:26:27;6.90;99.90
23744;DHT22;12052;53.478;10.182;2024-01-25T06:28:53;6.90;99.90
23744;DHT22;12052;53.478;10.182;2024-01-25T06:31:18;6.90;99.90
23744;DHT22;12052;53.478;10.182;2024-01-25T06:33:44;6.90;99.90
23744;DHT22;12052;53.478;10.182;2024-01-25T06:36:12;6.90;99.90
23744;DHT22;12052;53.478;10.182;2024-01-25T06:38:40;6.90;99.90
23744;DHT22;12052;53.478;10.182;2024-01-25T06:41:06;6.90;99.90
23744;DHT22;12052;53.478;10.182;2024-01-25T06:43:32;6.90;99.90
23744;DHT22;12052;53.478;10.182;2024-01-25T06:45:58;6.90;99.90
23744;DHT22;12052;53.478;10.182;2024-01-25T06:48:23;6.90;99.90
23744;DHT22;12052;53.478;10.182;2024-01-25T06:50:49;6.90;99.90
23744;DHT22;12052;53.478;10.182;2024-01-25T06:53:16;6.90;99.90
23744;DHT22;12052;53.478;10.182;2024-01-25T06:55:42;6.90;99.90
23744;DHT22;12052;53.478;10.182;2024-01-25T06:58:07;6.90;99.90
23744;DHT22;12052;53.478;10.182;2024-01-25T07:00:33;7.00;99.90
23744;DHT22;12052;53.478;10.182;2024-01-25T07:02:59;7.00;99.90
23744;DHT22;12052;53.478;10.182;2024-01-25T07:05:24;6.90;99.90
23744;DHT22;12052;53.478;10.182;2024-01-25T07:07:50;6.90;99.90
23744;DHT22;12052;53.478;10.182;2024-01-25T07:10:15;6.90;99.90
23744;DHT22;12052;53.478;10.182;2024-01-25T07:12:41;7.00;99.90
23744;DHT22;12052;53.478;10.182;2024-01-25T07:15:07;6.90;99.90
23744;DHT22;12052;53.478;10.182;2024-01-25T07:17:33;6.90;99.90
23744;DHT22;12052;53.478;10.182;2024-01-25T07:19:58;6.90;99.90
23744;DHT22;12052;53.478;10.182;2024-01-25T07:22:24;6.80;99.90
23744;DHT22;12052;53.478;10.182;2024-01-25T07:24:49;6.80;99.90
23744;DHT22;12052;53.478;10.182;2024-01-25T07:27:15;6.80;99.90
23744;DHT22;12052;53.478;10.182;2024-01-25T07:29:43;6.70;99.90
23744;DHT22;12052;53.478;10.182;2024-01-25T07:32:10;6.70;99.90
23744;DHT22;12052;53.478;10.182;2024-01-25T07:34:36;6.70;99.90
23744;DHT22;12052;53.478;10.182;2024-01-25T07:37:02;6.70;99.90
23744;DHT22;12052;53.478;10.182;2024-01-25T07:39:28;6.60;99.90
23744;DHT22;12052;53.478;10.182;2024-01-25T07:41:53;6.70;99.90
23744;DHT22;12052;53.478;10.182;2024-01-25T07:44:19;6.70;99.90
23744;DHT22;12052;53.478;10.182;2024-01-25T07:46:45;6.70;99.90
23744;DHT22;12052;53.478;10.182;2024-01-25T07:49:10;6.60;99.90
23744;DHT22;12052;53.478;10.182;2024-01-25T07:51:36;6.60;99.90
23744;DHT22;12052;53.478;10.182;2024-01-25T07:54:02;6.60;99.90
23744;DHT22;12052;53.478;10.182;2024-01-25T07:56:27;6.60;99.90
23744;DHT22;12052;53.478;10.182;2024-01-25T07:58:53;6.60;99.90
23744;DHT22;12052;53.478;10.182;2024-01-25T08:01:19;6.60;99.90
23744;DHT22;12052;53.478;10.182;2024-01-25T08:03:45;6.70;99.90
23744;DHT22;12052;53.478;10.182;2024-01-25T08:06:10;6.70;99.90
23744;DHT22;12052;53.478;10.182;2024-01-25T08:08:36;6.70;99.90
23744;DHT22;12052;53.478;10.182;2024-01-25T08:11:02;6.70;99.90
23744;DHT22;12052;53.478;10.182;2024-01-25T08:13:29;6.70;99.90
23744;DHT22;12052;53.478;10.182;2024-01-25T08:15:56;6.70;99.90
23744;DHT22;12052;53.478;10.182;2024-01-25T08:18:21;6.70;99.90
23744;DHT22;12052;53.478;10.182;2024-01-25T08:20:48;6.70;99.90
23744;DHT22;12052;53.478;10.182;2024-01-25T08:23:14;6.80;99.90
23744;DHT22;12052;53.478;10.182;2024-01-25T08:25:40;6.70;99.90
23744;DHT22;12052;53.478;10.182;2024-01-25T08:28:06;6.70;99.90
23744;DHT22;12052;53.478;10.182;2024-01-25T08:30:31;6.80;99.90
23744;DHT22;12052;53.478;10.182;2024-01-25T08:32:58;6.80;99.90
23744;DHT22;12052;53.478;10.182;2024-01-25T08:35:23;6.80;99.90
23744;DHT22;12052;53.478;10.182;2024-01-25T08:37:49;6.80;99.90
23744;DHT22;12052;53.478;10.182;2024-01-25T08:40:15;6.80;99.90
23744;DHT22;12052;53.478;10.182;2024-01-25T08:42:41;6.80;99.90
23744;DHT22;12052;53.478;10.182;2024-01-25T08:45:07;6.80;99.90
23744;DHT22;12052;53.478;10.182;2024-01-25T08:47:35;6.80;99.90
23744;DHT22;12052;53.478;10.182;2024-01-25T08:50:00;6.90;99.90
23744;DHT22;12052;53.478;10.182;2024-01-25T08:52:26;6.90;99.90
23744;DHT22;12052;53.478;10.182;2024-01-25T08:54:52;6.90;99.90
23744;DHT22;12052;53.478;10.182;2024-01-25T08:57:17;6.90;99.90
23744;DHT22;12052;53.478;10.182;2024-01-25T08:59:43;6.90;99.90
23744;DHT22;12052;53.478;10.182;2024-01-25T09:02:09;7.00;99.90
23744;DHT22;12052;53.478;10.182;2024-01-25T09:04:34;6.90;99.90
23744;DHT22;12052;53.478;10.182;2024-01-25T09:07:00;6.90;99.90
23744;DHT22;12052;53.478;10.182;2024-01-25T09:09:26;7.00;99.90
23744;DHT22;12052;53.478;10.182;2024-01-25T09:11:51;7.00;99.90
23744;DHT22;12052;53.478;10.182;2024-01-25T09:14:17;7.00;99.90
23744;DHT22;12052;53.478;10.182;2024-01-25T09:16:43;7.00;99.90
23744;DHT22;12052;53.478;10.182;2024-01-25T09:19:08;7.00;99.90
23744;DHT22;12052;53.478;10.182;2024-01-25T09:21:34;7.00;99.90
23744;DHT22;12052;53.478;10.182;2024-01-25T09:23:59;7.00;99.90
23744;DHT22;12052;53.478;10.182;2024-01-25T09:26:25;7.00;99.90
23744;DHT22;12052;53.478;10.182;2024-01-25T09:28:51;7.00;99.90
23744;DHT22;12052;53.478;10.182;2024-01-25T09:31:16;7.00;99.90
23744;DHT22;12052;53.478;10.182;2024-01-25T09:33:42;7.10;99.90
23744;DHT22;12052;53.478;10.182;2024-01-25T09:36:07;7.10;99.90
23744;DHT22;12052;53.478;10.182;2024-01-25T09:38:33;7.10;99.90
23744;DHT22;12052;53.478;10.182;2024-01-25T09:40:59;7.10;99.90
23744;DHT22;12052;53.478;10.182;2024-01-25T09:43:27;7.10;99.90
23744;DHT22;12052;53.478;10.182;2024-01-25T09:45:55;7.10;99.90
23744;DHT22;12052;53.478;10.182;2024-01-25T09:48:21;7.10;99.90
23744;DHT22;12052;53.478;10.182;2024-01-25T09:50:47;7.10;99.90
23744;DHT22;12052;53.478;10.182;2024-01-25T09:53:32;7.10;99.90
23744;DHT22;12052;53.478;10.182;2024-01-25T09:56:09;7.10;99.90
23744;DHT22;12052;53.478;10.182;2024-01-25T09:58:43;7.10;99.90
23744;DHT22;12052;53.478;10.182;2024-01-25T10:01:13;7.10;99.90
23744;DHT22;12052;53.478;10.182;2024-01-25T10:03:42;7.10;99.90
23744;DHT22;12052;53.478;10.182;2024-01-25T10:06:08;7.10;99.90
23744;DHT22;12052;53.478;10.182;2024-01-25T10:08:34;7.10;99.90
23744;DHT22;12052;53.478;10.182;2024-01-25T10:11:00;7.10;99.90
23744;DHT22;12052;53.478;10.182;2024-01-25T10:13:28;7.10;99.90
23744;DHT22;12052;53.478;10.182;2024-01-25T10:15:54;7.10;99.90
23744;DHT22;12052;53.478;10.182;2024-01-25T10:18:22;7.20;99.90
23744;DHT22;12052;53.478;10.182;2024-01-25T10:20:47;7.10;99.90
23744;DHT22;12052;53.478;10.182;2024-01-25T10:23:13;7.20;99.90
23744;DHT22;12052;53.478;10.182;2024-01-25T10:25:39;7.20;99.90
23744;DHT22;12052;53.478;10.182;2024-01-25T10:28:05;7.20;99.90
23744;DHT22;12052;53.478;10.182;2024-01-25T10:30:32;7.20;99.90
23744;DHT22;12052;53.478;10.182;2024-01-25T10:32:59;7.20;99.90
23744;DHT22;12052;53.478;10.182;2024-01-25T10:35:26;7.20;99.90
23744;DHT22;12052;53.478;10.182;2024-01-25T10:37:52;7.20;99.90
23744;DHT22;12052;53.478;10.182;2024-01-25T10:40:19;7.20;99.90
23744;DHT22;12052;53.478;10.182;2024-01-25T10:42:45;7.20;99.90
23744;DHT22;12052;53.478;10.182;2024-01-25T10:45:10;7.20;99.90
23744;DHT22;12052;53.478;10.182;2024-01-25T10:47:37;7.20;99.90
23744;DHT22;12052;53.478;10.182;2024-01-25T10:50:04;7.20;99.90
23744;DHT22;12052;53.478;10.182;2024-01-25T10:52:30;7.20;99.90
23744;DHT22;12052;53.478;10.182;2024-01-25T10:54:57;7.10;99.90
23744;DHT22;12052;53.478;10.182;2024-01-25T10:57:23;7.20;99.90
23744;DHT22;12052;53.478;10.182;2024-01-25T10:59:49;7.20;99.90
23744;DHT22;12052;53.478;10.182;2024-01-25T11:02:18;7.20;99.90
23744;DHT22;12052;53.478;10.182;2024-01-25T11:04:53;7.20;99.90
23744;DHT22;12052;53.478;10.182;2024-01-25T11:07:20;7.20;99.90
23744;DHT22;12052;53.478;10.182;2024-01-25T11:09:50;7.20;99.90
23744;DHT22;12052;53.478;10.182;2024-01-25T11:12:18;7.20;99.90
23744;DHT22;12052;53.478;10.182;2024-01-25T11:14:44;7.20;99.90
23744;DHT22;12052;53.478;10.182;2024-01-25T11:17:22;7.20;99.90
23744;DHT22;12052;53.478;10.182;2024-01-25T11:19:50;7.20;99.90
23744;DHT22;12052;53.478;10.182;2024-01-25T11:22:16;7.20;99.90
23744;DHT22;12052;53.478;10.182;2024-01-25T11:24:43;7.30;99.90
23744;DHT22;12052;53.478;10.182;2024-01-25T11:27:09;7.30;99.90
23744;DHT22;12052;53.478;10.182;2024-01-25T11:29:36;7.30;99.90
23744;DHT22;12052;53.478;10.182;2024-01-25T11:32:03;7.30;99.90
23744;DHT22;12052;53.478;10.182;2024-01-25T11:34:29;7.30;99.90
23744;DHT22;12052;53.478;10.182;2024-01-25T11:36:57;7.30;99.90
23744;DHT22;12052;53.478;10.182;2024-01-25T11:39:23;7.30;99.90
23744;DHT22;12052;53.478;10.182;2024-01-25T11:41:51;7.30;99.90
23744;DHT22;12052;53.478;10.182;2024-01-25T11:44:17;7.30;99.90
23744;DHT22;12052;53.478;10.182;2024-01-25T11:46:43;7.30;99.90
23744;DHT22;12052;53.478;10.182;2024-01-25T11:49:08;7.30;99.90
23744;DHT22;12052;53.478;10.182;2024-01-25T11:51:34;7.30;99.90
23744;DHT22;12052;53.478;10.182;2024-01-25T11:53:59;7.30;99.90
23744;DHT22;12052;53.478;10.182;2024-01-25T11:56:32;7.30;99.90
23744;DHT22;12052;53.478;10.182;2024-01-25T11:58:59;7.40;99.90
23744;DHT22;12052;53.478;10.182;2024-01-25T12:01:25;7.30;99.90
23744;DHT22;12052;53.478;10.182;2024-01-25T12:03:51;7.40;99.90
23744;DHT22;12052;53.478;10.182;2024-01-25T12:06:18;7.40;99.90
23744;DHT22;12052;53.478;10.182;2024-01-25T12:08:44;7.50;99.90
23744;DHT22;12052;53.478;10.182;2024-01-25T12:11:11;7.40;99.90
23744;DHT22;12052;53.478;10.182;2024-01-25T12:13:41;7.40;99.90
23744;DHT22;12052;53.478;10.182;2024-01-25T12:16:08;7.40;99.90
23744;DHT22;12052;53.478;10.182;2024-01-25T12:18:34;7.40;99.90
23744;DHT22;12052;53.478;10.182;2024-01-25T12:21:04;7.40;99.90
23744;DHT22;12052;53.478;10.182;2024-01-25T12:23:39;7.40;99.90
23744;DHT22;12052;53.478;10.182;2024-01-25T12:26:08;7.40;99.90
23744;DHT22;12052;53.478;10.182;2024-01-25T12:28:34;7.40;99.90
23744;DHT22;12052;53.478;10.182;2024-01-25T12:31:01;7.40;99.90
23744;DHT22;12052;53.478;10.182;2024-01-25T12:33:28;7.40;99.90
23744;DHT22;12052;53.478;10.182;2024-01-25T12:35:54;7.40;99.90
23744;DHT22;12052;53.478;10.182;2024-01-25T12:38:21;7.40;99.90
23744;DHT22;12052;53.478;10.182;2024-01-25T12:40:47;7.40;99.90
23744;DHT22;12052;53.478;10.182;2024-01-25T12:43:14;7.40;99.90
23744;DHT22;12052;53.478;10.182;2024-01-25T12:45:40;7.40;99.90
23744;DHT22;12052;53.478;10.182;2024-01-25T12:48:06;7.40;99.90
23744;DHT22;12052;53.478;10.182;2024-01-25T12:50:33;7.40;99.90
23744;DHT22;12052;53.478;10.182;2024-01-25T12:52:59;7.40;99.90
23744;DHT22;12052;53.478;10.182;2024-01-25T12:55:25;7.40;99.90
23744;DHT22;12052;53.478;10.182;2024-01-25T12:57:51;7.40;99.90
23744;DHT22;12052;53.478;10.182;2024-01-25T13:00:16;7.40;99.90
23744;DHT22;12052;53.478;10.182;2024-01-25T13:02:42;7.40;99.90
23744;DHT22;12052;53.478;10.182;2024-01-25T13:05:08;7.40;99.90
23744;DHT22;12052;53.478;10.182;2024-01-25T13:07:33;7.40;99.90
23744;DHT22;12052;53.478;10.182;2024-01-25T13:09:59;7.40;99.90
23744;DHT22;12052;53.478;10.182;2024-01-25T13:12:24;7.40;99.90
23744;DHT22;12052;53.478;10.182;2024-01-25T13:14:50;7.40;99.90
23744;DHT22;12052;53.478;10.182;2024-01-25T13:17:16;7.40;99.90
23744;DHT22;12052;53.478;10.182;2024-01-25T13:19:41;7.40;99.90
23744;DHT22;12052;53.478;10.182;2024-01-25T13:22:07;7.40;99.90
23744;DHT22;12052;53.478;10.182;2024-01-25T13:24:32;7.50;99.90
23744;DHT22;12052;53.478;10.182;2024-01-25T13:26:58;7.50;99.90
23744;DHT22;12052;53.478;10.182;2024-01-25T13:29:24;7.50;99.90
23744;DHT22;12052;53.478;10.182;2024-01-25T13:31:49;7.50;99.90
23744;DHT22;12052;53.478;10.182;2024-01-25T13:34:15;7.50;99.90
23744;DHT22;12052;53.478;10.182;2024-01-25T13:36:41;7.50;99.90
23744;DHT22;12052;53.478;10.182;2024-01-25T13:39:06;7.50;99.90
23744;DHT22;12052;53.478;10.182;2024-01-25T13:41:32;7.50;99.90
23744;DHT22;12052;53.478;10.182;2024-01-25T13:43:58;7.50;99.90
23744;DHT22;12052;53.478;10.182;2024-01-25T13:46:23;7.50;99.90
23744;DHT22;12052;53.478;10.182;2024-01-25T13:48:49;7.50;99.90
23744;DHT22;12052;53.478;10.182;2024-01-25T13:51:14;7.50;99.90
23744;DHT22;12052;53.478;10.182;2024-01-25T13:53:40;7.50;99.90
23744;DHT22;12052;53.478;10.182;2024-01-25T13:56:05;7.50;99.90
23744;DHT22;12052;53.478;10.182;2024-01-25T13:58:31;7.50;99.90
23744;DHT22;12052;53.478;10.182;2024-01-25T14:00:57;7.60;99.90
23744;DHT22;12052;53.478;10.182;2024-01-25T14:03:22;7.60;99.90
23744;DHT22;12052;53.478;10.182;2024-01-25T14:05:48;7.70;99.90
23744;DHT22;12052;53.478;10.182;2024-01-25T14:08:13;7.70;99.90
23744;DHT22;12052;53.478;10.182;2024-01-25T14:10:39;7.70;99.90
23744;DHT22;12052;53.478;10.182;2024-01-25T14:13:06;7.80;99.90
23744;DHT22;12052;53.478;10.182;2024-01-25T14:15:31;7.80;99.90
23744;DHT22;12052;53.478;10.182;2024-01-25T14:17:57;7.80;99.90
23744;DHT22;12052;53.478;10.182;2024-01-25T14:20:22;7.90;99.90
23744;DHT22;12052;53.478;10.182;2024-01-25T14:22:48;7.90;99.90
23744;DHT22;12052;53.478;10.182;2024-01-25T14:25:14;8.00;99.90
23744;DHT22;12052;53.478;10.182;2024-01-25T14:27:40;8.10;99.90
23744;DHT22;12052;53.478;10.182;2024-01-25T14:30:06;8.10;99.90
23744;DHT22;12052;53.478;10.182;2024-01-25T14:32:32;8.10;99.90
23744;DHT22;12052;53.478;10.182;2024-01-25T14:34:58;8.10;99.90
23744;DHT22;12052;53.478;10.182;2024-01-25T14:37:24;8.10;99.90
23744;DHT22;12052;53.478;10.182;2024-01-25T14:39:49;8.10;99.90
23744;DHT22;12052;53.478;10.182;2024-01-25T14:42:15;8.10;99.90
23744;DHT22;12052;53.478;10.182;2024-01-25T14:44:44;8.10;99.90
23744;DHT22;12052;53.478;10.182;2024-01-25T14:47:09;8.00;99.90
23744;DHT22;12052;53.478;10.182;2024-01-25T14:49:35;8.10;99.90
23744;DHT22;12052;53.478;10.182;2024-01-25T14:52:01;8.00;99.90
23744;DHT22;12052;53.478;10.182;2024-01-25T14:54:26;8.00;99.90
23744;DHT22;12052;53.478;10.182;2024-01-25T14:56:52;7.90;99.90
23744;DHT22;12052;53.478;10.182;2024-01-25T14:59:18;7.90;99.90
23744;DHT22;12052;53.478;10.182;2024-01-25T15:01:46;7.90;99.90
23744;DHT22;12052;53.478;10.182;2024-01-25T15:04:12;7.90;99.90
23744;DHT22;12052;53.478;10.182;2024-01-25T15:06:37;7.90;99.90
23744;DHT22;12052;53.478;10.182;2024-01-25T15:09:03;7.90;99.90
23744;DHT22;12052;53.478;10.182;2024-01-25T15:11:28;7.80;99.90
23744;DHT22;12052;53.478;10.182;2024-01-25T15:13:54;7.80;99.90
23744;DHT22;12052;53.478;10.182;2024-01-25T15:16:19;7.80;99.90
23744;DHT22;12052;53.478;10.182;2024-01-25T15:18:45;7.80;99.90
23744;DHT22;12052;53.478;10.182;2024-01-25T15:21:11;7.80;99.90
23744;DHT22;12052;53.478;10.182;2024-01-25T15:23:36;7.80;99.90